Date,TemperatureHighF,TemperatureAvgF,TemperatureLowF,DewpointHighF,DewpointAvgF,DewpointLowF,HumidityHigh,HumidityAvg,HumidityLow,PressureMaxIn,PressureMinIn,WindSpeedMaxMPH,WindSpeedAvgMPH,GustSpeedMaxMPH,PrecipitationSumIn
2013-1-1,39,33,23,0,-4,-13,21,19,18,29.62,29.44,14,4,15,0.00
2013-1-2,30,22,16,-8,-13,-17,22,20,18,29.77,29.59,12,2,12,0.00
2013-1-3,34,20,10,-3,-14,-22,23,21,18,29.80,29.65,11,2,11,0.00
2013-1-4,38,28,19,0,-5,-13,33,22,19,29.68,29.53,90,3,90,0.00
2013-1-5,47,32,24,4,-5,-10,27,20,17,29.89,29.56,13,2,13,0.08
2013-1-6,48,33,26,7,0,-6,32,24,17,29.83,29.59,12,1,12,0.04
2013-1-7,49,34,22,5,-1,-9,31,23,16,30.01,29.65,11,2,12,0.08
2013-1-8,52,33,22,7,1,-5,38,27,16,30.04,29.95,12,1,12,0.00
2013-1-9,42,34,24,11,6,0,42,31,18,30.01,29.71,12,1,13,0.00
2013-1-10,51,39,31,6,0,-5,21,19,16,30.19,29.80,13,3,14,0.00
2013-1-11,41,34,27,27,6,-7,59,33,19,30.16,29.77,7,0,7,0.39
2013-1-12,45,41,39,31,28,24,65,58,54,29.80,29.71,5,0,5,0.12
2013-1-13,46,43,40,36,31,25,69,62,44,29.80,29.65,6,0,6,0.00
2013-1-14,58,46,34,44,24,-1,76,47,18,29.92,29.57,12,2,12,0.04
2013-1-15,38,34,31,14,5,-3,44,30,20,29.98,29.86,8,0,8,0.16
2013-1-16,34,32,30,20,13,-1,60,46,23,29.86,29.42,8,0,8,0.00
2013-1-17,50,35,29,21,6,-7,63,33,16,29.71,29.51,9,1,9,0.20
2013-1-18,36,24,17,-5,-12,-16,23,20,17,30.10,29.65,14,3,16,0.00
2013-1-19,44,36,19,4,-2,-13,24,19,18,30.01,29.54,13,3,13,0.04
2013-1-20,52,40,27,8,1,-11,32,20,16,29.62,29.30,23,4,23,0.16
2013-1-21,30,26,20,0,-9,-15,33,21,18,29.71,29.42,15,1,15,0.00
2013-1-22,30,19,10,-3,-15,-21,33,21,18,29.77,29.42,18,5,20,0.00
2013-1-23,26,12,5,-11,-20,-26,22,21,19,29.83,29.74,15,4,15,0.00
2013-1-24,29,12,2,-10,-20,-28,22,21,18,29.95,29.74,16,3,16,0.00
2013-1-25,24,16,5,-6,-16,-25,34,22,19,30.01,29.65,11,0,11,0.00
2013-1-26,33,19,12,-6,-14,-20,33,22,18,29.95,29.65,14,2,16,0.16
2013-1-27,41,20,6,0,-15,-25,24,20,17,30.10,29.95,13,1,13,0.16
2013-1-28,33,26,16,18,0,-17,54,34,19,30.10,29.62,7,0,7,0.00
2013-1-29,39,34,32,18,16,9,54,46,32,29.80,29.59,0,0,0,0.16
2013-1-30,55,46,34,50,36,16,85,66,46,29.74,29.06,15,1,15,0.16
2013-1-31,59,45,28,52,16,-10,86,37,16,29.36,28.71,26,7,27,1.34